sensor_id;sensor_type;location;lat;lon;timestamp;temperature;humidity
2407;DHT22;37709;53.480;9.688;2023-02-07T00:01:20;-3.00;99.90
2407;DHT22;37709;53.480;9.688;2023-02-07T00:03:48;-3.00;99.90
2407;DHT22;37709;53.480;9.688;2023-02-07T00:06:28;-3.00;99.90
2407;DHT22;37709;53.480;9.688;2023-02-07T00:08:55;-3.00;99.90
2407;DHT22;37709;53.480;9.688;2023-02-07T00:11:24;-2.90;99.90
2407;DHT22;37709;53.480;9.688;2023-02-07T00:13:53;-3.00;99.90
2407;DHT22;37709;53.480;9.688;2023-02-07T00:16:22;-3.10;99.90
2407;DHT22;37709;53.480;9.688;2023-02-07T00:18:52;-3.20;99.90
2407;DHT22;37709;53.480;9.688;2023-02-07T00:21:21;-3.30;99.90
2407;DHT22;37709;53.480;9.688;2023-02-07T00:23:50;-3.30;99.90
2407;DHT22;37709;53.480;9.688;2023-02-07T00:26:19;-3.40;99.90
2407;DHT22;37709;53.480;9.688;2023-02-07T00:28:49;-3.70;99.90
2407;DHT22;37709;53.480;9.688;2023-02-07T00:31:24;-3.80;99.90
2407;DHT22;37709;53.480;9.688;2023-02-07T00:33:54;-3.90;99.90
2407;DHT22;37709;53.480;9.688;2023-02-07T00:36:24;-4.10;99.90
2407;DHT22;37709;53.480;9.688;2023-02-07T00:38:57;-3.90;99.90
2407;DHT22;37709;53.480;9.688;2023-02-07T00:41:26;-3.80;99.90
2407;DHT22;37709;53.480;9.688;2023-02-07T00:43:54;-3.70;99.90
2407;DHT22;37709;53.480;9.688;2023-02-07T00:46:23;-3.70;99.90
2407;DHT22;37709;53.480;9.688;2023-02-07T00:48:53;-3.70;99.90
2407;DHT22;37709;53.480;9.688;2023-02-07T00:51:20;-3.70;99.90
2407;DHT22;37709;53.480;9.688;2023-02-07T00:53:48;-3.70;99.90
2407;DHT22;37709;53.480;9.688;2023-02-07T00:56:18;-3.70;99.90
2407;DHT22;37709;53.480;9.688;2023-02-07T00:58:45;-3.80;99.90
2407;DHT22;37709;53.480;9.688;2023-02-07T01:01:13;-3.90;99.90
2407;DHT22;37709;53.480;9.688;2023-02-07T01:03:40;-3.80;99.90
2407;DHT22;37709;53.480;9.688;2023-02-07T01:06:09;-3.80;99.90
2407;DHT22;37709;53.480;9.688;2023-02-07T01:08:36;-3.60;99.90
2407;DHT22;37709;53.480;9.688;2023-02-07T01:11:07;-3.50;99.90
2407;DHT22;37709;53.480;9.688;2023-02-07T01:13:37;-3.60;99.90
2407;DHT22;37709;53.480;9.688;2023-02-07T01:16:04;-3.70;99.90
2407;DHT22;37709;53.480;9.688;2023-02-07T01:18:32;-3.80;99.90
2407;DHT22;37709;53.480;9.688;2023-02-07T01:21:01;-4.00;99.90
2407;DHT22;37709;53.480;9.688;2023-02-07T01:23:29;-4.20;99.90
2407;DHT22;37709;53.480;9.688;2023-02-07T01:25:56;-4.20;99.90
2407;DHT22;37709;53.480;9.688;2023-02-07T01:28:23;-4.30;99.90
2407;DHT22;37709;53.480;9.688;2023-02-07T01:30:51;-4.40;99.90
2407;DHT22;37709;53.480;9.688;2023-02-07T01:33:18;-4.50;99.90
2407;DHT22;37709;53.480;9.688;2023-02-07T01:35:45;-4.70;99.90
2407;DHT22;37709;53.480;9.688;2023-02-07T01:38:13;-4.80;99.90
2407;DHT22;37709;53.480;9.688;2023-02-07T01:40:41;-4.90;99.90
2407;DHT22;37709;53.480;9.688;2023-02-07T01:43:17;-5.00;99.90
2407;DHT22;37709;53.480;9.688;2023-02-07T01:45:45;-4.90;99.90
2407;DHT22;37709;53.480;9.688;2023-02-07T01:48:19;-4.80;99.90
2407;DHT22;37709;53.480;9.688;2023-02-07T01:50:48;-4.70;99.90
2407;DHT22;37709;53.480;9.688;2023-02-07T01:53:20;-4.60;99.90
2407;DHT22;37709;53.480;9.688;2023-02-07T01:55:51;-4.80;99.90
2407;DHT22;37709;53.480;9.688;2023-02-07T01:58:20;-4.80;99.90
2407;DHT22;37709;53.480;9.688;2023-02-07T02:00:49;-4.80;99.90
2407;DHT22;37709;53.480;9.688;2023-02-07T02:03:17;-4.70;99.90
2407;DHT22;37709;53.480;9.688;2023-02-07T02:05:45;-4.80;99.90
2407;DHT22;37709;53.480;9.688;2023-02-07T02:08:14;-4.70;99.90
2407;DHT22;37709;53.480;9.688;2023-02-07T02:14:18;-4.50;99.90
2407;DHT22;37709;53.480;9.688;2023-02-07T02:16:54;-4.40;99.90
2407;DHT22;37709;53.480;9.688;2023-02-07T02:22:18;-4.50;99.90
2407;DHT22;37709;53.480;9.688;2023-02-07T02:26:02;-4.40;99.90
2407;DHT22;37709;53.480;9.688;2023-02-07T02:28:06;-4.20;99.90
2407;DHT22;37709;53.480;9.688;2023-02-07T02:30:51;-4.10;99.90
2407;DHT22;37709;53.480;9.688;2023-02-07T02:36:42;-4.00;99.90
2407;DHT22;37709;53.480;9.688;2023-02-07T02:39:22;-4.00;99.90
2407;DHT22;37709;53.480;9.688;2023-02-07T02:44:41;-3.80;99.90
2407;DHT22;37709;53.480;9.688;2023-02-07T02:47:10;-3.80;99.90
2407;DHT22;37709;53.480;9.688;2023-02-07T02:49:38;-3.60;99.90
2407;DHT22;37709;53.480;9.688;2023-02-07T02:52:07;-3.60;99.90
2407;DHT22;37709;53.480;9.688;2023-02-07T02:54:36;-3.50;99.90
2407;DHT22;37709;53.480;9.688;2023-02-07T02:57:22;-3.50;99.90
2407;DHT22;37709;53.480;9.688;2023-02-07T03:00:25;-3.40;99.90
2407;DHT22;37709;53.480;9.688;2023-02-07T03:06:27;-3.10;99.90
2407;DHT22;37709;53.480;9.688;2023-02-07T03:12:01;-3.20;99.90
2407;DHT22;37709;53.480;9.688;2023-02-07T03:15:00;-3.20;99.90
2407;DHT22;37709;53.480;9.688;2023-02-07T03:20:29;-3.10;99.90
2407;DHT22;37709;53.480;9.688;2023-02-07T03:22:59;-3.20;99.90
2407;DHT22;37709;53.480;9.688;2023-02-07T03:25:30;-3.20;99.90
2407;DHT22;37709;53.480;9.688;2023-02-07T03:27:59;-3.20;99.90
2407;DHT22;37709;53.480;9.688;2023-02-07T03:30:30;-3.30;99.90
2407;DHT22;37709;53.480;9.688;2023-02-07T03:33:01;-3.30;99.90
2407;DHT22;37709;53.480;9.688;2023-02-07T03:36:00;-3.60;99.90
2407;DHT22;37709;53.480;9.688;2023-02-07T03:38:29;-3.70;99.90
2407;DHT22;37709;53.480;9.688;2023-02-07T03:40:59;-3.80;99.90
2407;DHT22;37709;53.480;9.688;2023-02-07T03:43:29;-3.90;99.90
2407;DHT22;37709;53.480;9.688;2023-02-07T03:45:58;-3.90;99.90
2407;DHT22;37709;53.480;9.688;2023-02-07T03:48:26;-3.90;99.90
2407;DHT22;37709;53.480;9.688;2023-02-07T03:50:53;-3.90;99.90
2407;DHT22;37709;53.480;9.688;2023-02-07T03:53:21;-4.00;99.90
2407;DHT22;37709;53.480;9.688;2023-02-07T03:55:48;-4.10;99.90
2407;DHT22;37709;53.480;9.688;2023-02-07T03:58:15;-4.10;99.90
2407;DHT22;37709;53.480;9.688;2023-02-07T04:00:42;-4.20;99.90
2407;DHT22;37709;53.480;9.688;2023-02-07T04:03:10;-4.20;99.90
2407;DHT22;37709;53.480;9.688;2023-02-07T04:05:37;-4.20;99.90
2407;DHT22;37709;53.480;9.688;2023-02-07T04:08:05;-4.30;99.90
2407;DHT22;37709;53.480;9.688;2023-02-07T04:10:32;-4.50;99.90
2407;DHT22;37709;53.480;9.688;2023-02-07T04:12:59;-4.60;99.90
2407;DHT22;37709;53.480;9.688;2023-02-07T04:15:27;-4.70;99.90
2407;DHT22;37709;53.480;9.688;2023-02-07T04:17:54;-4.80;99.90
2407;DHT22;37709;53.480;9.688;2023-02-07T04:20:21;-4.70;99.90
2407;DHT22;37709;53.480;9.688;2023-02-07T04:22:49;-4.70;99.90
2407;DHT22;37709;53.480;9.688;2023-02-07T04:25:17;-4.60;99.90
2407;DHT22;37709;53.480;9.688;2023-02-07T04:27:44;-4.60;99.90
2407;DHT22;37709;53.480;9.688;2023-02-07T04:30:12;-4.40;99.90
2407;DHT22;37709;53.480;9.688;2023-02-07T04:32:39;-4.50;99.90
2407;DHT22;37709;53.480;9.688;2023-02-07T04:35:08;-4.70;99.90
2407;DHT22;37709;53.480;9.688;2023-02-07T04:37:36;-4.80;99.90
2407;DHT22;37709;53.480;9.688;2023-02-07T04:40:04;-4.90;99.90
2407;DHT22;37709;53.480;9.688;2023-02-07T04:42:31;-5.00;99.90
2407;DHT22;37709;53.480;9.688;2023-02-07T04:44:58;-5.00;99.90
2407;DHT22;37709;53.480;9.688;2023-02-07T04:47:25;-5.00;99.90
2407;DHT22;37709;53.480;9.688;2023-02-07T04:49:52;-5.00;99.90
2407;DHT22;37709;53.480;9.688;2023-02-07T04:52:20;-5.00;99.90
2407;DHT22;37709;53.480;9.688;2023-02-07T04:54:47;-5.20;99.90
2407;DHT22;37709;53.480;9.688;2023-02-07T04:57:15;-5.30;99.90
2407;DHT22;37709;53.480;9.688;2023-02-07T04:59:42;-5.10;99.90
2407;DHT22;37709;53.480;9.688;2023-02-07T05:02:09;-5.10;99.90
2407;DHT22;37709;53.480;9.688;2023-02-07T05:04:36;-5.30;99.90
2407;DHT22;37709;53.480;9.688;2023-02-07T05:07:04;-5.60;99.90
2407;DHT22;37709;53.480;9.688;2023-02-07T05:09:32;-5.70;99.90
2407;DHT22;37709;53.480;9.688;2023-02-07T05:11:59;-5.90;99.90
2407;DHT22;37709;53.480;9.688;2023-02-07T05:14:26;-5.90;99.90
2407;DHT22;37709;53.480;9.688;2023-02-07T05:16:53;-5.90;99.90
2407;DHT22;37709;53.480;9.688;2023-02-07T05:19:21;-6.00;99.90
2407;DHT22;37709;53.480;9.688;2023-02-07T05:21:48;-6.00;99.90
2407;DHT22;37709;53.480;9.688;2023-02-07T05:24:15;-6.10;99.90
2407;DHT22;37709;53.480;9.688;2023-02-07T05:26:43;-5.90;99.90
2407;DHT22;37709;53.480;9.688;2023-02-07T05:29:10;-5.80;99.90
2407;DHT22;37709;53.480;9.688;2023-02-07T05:31:38;-5.80;99.90
2407;DHT22;37709;53.480;9.688;2023-02-07T05:34:24;-5.90;99.90
2407;DHT22;37709;53.480;9.688;2023-02-07T05:36:52;-6.00;99.90
2407;DHT22;37709;53.480;9.688;2023-02-07T05:39:19;-6.20;99.90
2407;DHT22;37709;53.480;9.688;2023-02-07T05:41:47;-6.10;99.90
2407;DHT22;37709;53.480;9.688;2023-02-07T05:44:14;-6.20;99.90
2407;DHT22;37709;53.480;9.688;2023-02-07T05:46:42;-6.30;99.90
2407;DHT22;37709;53.480;9.688;2023-02-07T05:49:09;-6.30;99.90
2407;DHT22;37709;53.480;9.688;2023-02-07T05:51:36;-6.30;99.90
2407;DHT22;37709;53.480;9.688;2023-02-07T05:54:04;-6.40;99.90
2407;DHT22;37709;53.480;9.688;2023-02-07T05:56:31;-6.40;99.90
2407;DHT22;37709;53.480;9.688;2023-02-07T05:58:58;-6.50;99.90
2407;DHT22;37709;53.480;9.688;2023-02-07T06:01:25;-6.60;99.90
2407;DHT22;37709;53.480;9.688;2023-02-07T06:03:52;-6.60;99.90
2407;DHT22;37709;53.480;9.688;2023-02-07T06:06:20;-6.70;99.90
2407;DHT22;37709;53.480;9.688;2023-02-07T06:08:47;-6.80;99.90
2407;DHT22;37709;53.480;9.688;2023-02-07T06:11:14;-6.60;99.90
2407;DHT22;37709;53.480;9.688;2023-02-07T06:13:41;-6.40;99.90
2407;DHT22;37709;53.480;9.688;2023-02-07T06:16:09;-6.40;99.90
2407;DHT22;37709;53.480;9.688;2023-02-07T06:18:37;-6.40;99.90
2407;DHT22;37709;53.480;9.688;2023-02-07T06:21:05;-6.40;99.90
2407;DHT22;37709;53.480;9.688;2023-02-07T06:23:32;-6.50;99.90
2407;DHT22;37709;53.480;9.688;2023-02-07T06:25:59;-6.30;99.90
2407;DHT22;37709;53.480;9.688;2023-02-07T06:28:26;-6.30;99.90
2407;DHT22;37709;53.480;9.688;2023-02-07T06:30:54;-6.40;99.90
2407;DHT22;37709;53.480;9.688;2023-02-07T06:33:21;-6.60;99.90
2407;DHT22;37709;53.480;9.688;2023-02-07T06:35:49;-6.60;99.90
2407;DHT22;37709;53.480;9.688;2023-02-07T06:38:17;-6.60;99.90
2407;DHT22;37709;53.480;9.688;2023-02-07T06:40:44;-6.60;99.90
2407;DHT22;37709;53.480;9.688;2023-02-07T06:43:12;-6.60;99.90
2407;DHT22;37709;53.480;9.688;2023-02-07T06:45:39;-6.50;99.90
2407;DHT22;37709;53.480;9.688;2023-02-07T06:48:08;-6.20;99.90
2407;DHT22;37709;53.480;9.688;2023-02-07T06:50:36;-6.00;99.90
2407;DHT22;37709;53.480;9.688;2023-02-07T06:53:03;-5.90;99.90
2407;DHT22;37709;53.480;9.688;2023-02-07T06:55:34;-6.10;99.90
2407;DHT22;37709;53.480;9.688;2023-02-07T06:58:04;-6.20;99.90
2407;DHT22;37709;53.480;9.688;2023-02-07T07:00:31;-6.30;99.90
2407;DHT22;37709;53.480;9.688;2023-02-07T07:02:59;-6.50;99.90
2407;DHT22;37709;53.480;9.688;2023-02-07T07:05:27;-6.50;99.90
2407;DHT22;37709;53.480;9.688;2023-02-07T07:07:56;-6.50;99.90
2407;DHT22;37709;53.480;9.688;2023-02-07T07:10:24;-6.60;99.90
2407;DHT22;37709;53.480;9.688;2023-02-07T07:12:52;-6.60;99.90
2407;DHT22;37709;53.480;9.688;2023-02-07T07:15:19;-6.70;99.90
2407;DHT22;37709;53.480;9.688;2023-02-07T07:17:46;-6.70;99.90
2407;DHT22;37709;53.480;9.688;2023-02-07T07:20:16;-6.70;99.90
2407;DHT22;37709;53.480;9.688;2023-02-07T07:22:43;-6.70;99.90
2407;DHT22;37709;53.480;9.688;2023-02-07T07:25:11;-6.70;99.90
2407;DHT22;37709;53.480;9.688;2023-02-07T07:27:38;-6.70;99.90
2407;DHT22;37709;53.480;9.688;2023-02-07T07:30:06;-6.60;99.90
2407;DHT22;37709;53.480;9.688;2023-02-07T07:32:37;-6.60;99.90
2407;DHT22;37709;53.480;9.688;2023-02-07T07:35:05;-6.60;99.90
2407;DHT22;37709;53.480;9.688;2023-02-07T07:37:33;-6.10;99.90
2407;DHT22;37709;53.480;9.688;2023-02-07T07:40:04;-5.70;99.90
2407;DHT22;37709;53.480;9.688;2023-02-07T07:42:31;-5.20;99.90
2407;DHT22;37709;53.480;9.688;2023-02-07T07:45:09;-4.70;99.90
2407;DHT22;37709;53.480;9.688;2023-02-07T07:47:36;-4.40;99.90
2407;DHT22;37709;53.480;9.688;2023-02-07T07:50:04;-4.20;99.90
2407;DHT22;37709;53.480;9.688;2023-02-07T07:52:32;-4.30;99.90
2407;DHT22;37709;53.480;9.688;2023-02-07T07:55:00;-4.40;99.90
2407;DHT22;37709;53.480;9.688;2023-02-07T07:57:29;-4.20;99.90
2407;DHT22;37709;53.480;9.688;2023-02-07T07:59:56;-3.80;99.90
2407;DHT22;37709;53.480;9.688;2023-02-07T08:02:23;-3.50;99.90
2407;DHT22;37709;53.480;9.688;2023-02-07T08:04:51;-3.60;99.90
2407;DHT22;37709;53.480;9.688;2023-02-07T08:07:18;-3.60;99.90
2407;DHT22;37709;53.480;9.688;2023-02-07T08:09:45;-3.60;99.90
2407;DHT22;37709;53.480;9.688;2023-02-07T08:12:13;-3.40;99.90
2407;DHT22;37709;53.480;9.688;2023-02-07T08:14:40;-3.00;99.90
2407;DHT22;37709;53.480;9.688;2023-02-07T08:17:07;-2.70;99.90
2407;DHT22;37709;53.480;9.688;2023-02-07T08:19:34;-2.60;99.90
2407;DHT22;37709;53.480;9.688;2023-02-07T08:22:04;-2.30;99.90
2407;DHT22;37709;53.480;9.688;2023-02-07T08:24:31;-2.40;99.90
2407;DHT22;37709;53.480;9.688;2023-02-07T08:27:01;-2.40;99.90
2407;DHT22;37709;53.480;9.688;2023-02-07T08:29:28;-2.30;99.90
2407;DHT22;37709;53.480;9.688;2023-02-07T08:31:55;-1.80;99.90
2407;DHT22;37709;53.480;9.688;2023-02-07T08:34:23;-1.70;99.90
2407;DHT22;37709;53.480;9.688;2023-02-07T08:36:52;-1.50;99.90
2407;DHT22;37709;53.480;9.688;2023-02-07T08:39:19;-1.30;99.90
2407;DHT22;37709;53.480;9.688;2023-02-07T08:41:49;-1.40;99.90
2407;DHT22;37709;53.480;9.688;2023-02-07T08:44:16;-1.30;99.90
2407;DHT22;37709;53.480;9.688;2023-02-07T08:46:43;-0.80;99.90
2407;DHT22;37709;53.480;9.688;2023-02-07T08:49:11;-0.70;99.90
2407;DHT22;37709;53.480;9.688;2023-02-07T08:51:38;-0.70;99.90
2407;DHT22;37709;53.480;9.688;2023-02-07T08:54:05;-0.20;99.90
2407;DHT22;37709;53.480;9.688;2023-02-07T08:56:32;0.40;99.90
2407;DHT22;37709;53.480;9.688;2023-02-07T08:59:00;0.90;99.90
2407;DHT22;37709;53.480;9.688;2023-02-07T09:01:28;1.60;99.90
2407;DHT22;37709;53.480;9.688;2023-02-07T09:03:55;2.50;99.90
2407;DHT22;37709;53.480;9.688;2023-02-07T09:06:24;3.00;99.90
2407;DHT22;37709;53.480;9.688;2023-02-07T09:08:52;3.90;99.90
2407;DHT22;37709;53.480;9.688;2023-02-07T09:11:20;4.90;99.90
2407;DHT22;37709;53.480;9.688;2023-02-07T09:13:49;5.60;99.90
2407;DHT22;37709;53.480;9.688;2023-02-07T09:16:16;5.90;99.90
2407;DHT22;37709;53.480;9.688;2023-02-07T09:18:43;6.10;99.90
2407;DHT22;37709;53.480;9.688;2023-02-07T09:21:10;6.60;99.90
2407;DHT22;37709;53.480;9.688;2023-02-07T09:23:38;7.20;99.90
2407;DHT22;37709;53.480;9.688;2023-02-07T09:26:06;6.90;99.90
2407;DHT22;37709;53.480;9.688;2023-02-07T09:28:34;6.30;99.90
2407;DHT22;37709;53.480;9.688;2023-02-07T09:31:09;6.40;99.90
2407;DHT22;37709;53.480;9.688;2023-02-07T09:33:38;6.30;99.90
2407;DHT22;37709;53.480;9.688;2023-02-07T09:36:14;7.00;99.90
2407;DHT22;37709;53.480;9.688;2023-02-07T09:38:41;6.90;99.90
2407;DHT22;37709;53.480;9.688;2023-02-07T09:41:20;7.10;99.90
2407;DHT22;37709;53.480;9.688;2023-02-07T09:44:00;7.90;99.90
2407;DHT22;37709;53.480;9.688;2023-02-07T09:46:47;8.40;99.90
2407;DHT22;37709;53.480;9.688;2023-02-07T09:52:58;9.40;99.90
2407;DHT22;37709;53.480;9.688;2023-02-07T09:55:23;9.30;99.10
2407;DHT22;37709;53.480;9.688;2023-02-07T09:58:02;10.20;99.90
2407;DHT22;37709;53.480;9.688;2023-02-07T10:00:35;10.50;99.90
2407;DHT22;37709;53.480;9.688;2023-02-07T10:05:44;11.40;95.50
2407;DHT22;37709;53.480;9.688;2023-02-07T10:08:15;11.70;96.60
2407;DHT22;37709;53.480;9.688;2023-02-07T10:11:00;12.20;95.50
2407;DHT22;37709;53.480;9.688;2023-02-07T10:13:54;11.70;91.70
2407;DHT22;37709;53.480;9.688;2023-02-07T10:22:14;13.40;89.40
2407;DHT22;37709;53.480;9.688;2023-02-07T10:25:08;14.20;90.20
2407;DHT22;37709;53.480;9.688;2023-02-07T10:30:37;13.80;84.20
2407;DHT22;37709;53.480;9.688;2023-02-07T10:33:17;14.20;82.70
2407;DHT22;37709;53.480;9.688;2023-02-07T10:35:46;14.20;78.90
2407;DHT22;37709;53.480;9.688;2023-02-07T10:41:38;15.10;80.10
2407;DHT22;37709;53.480;9.688;2023-02-07T10:44:18;15.30;78.00
2407;DHT22;37709;53.480;9.688;2023-02-07T10:46:59;15.80;75.30
2407;DHT22;37709;53.480;9.688;2023-02-07T10:49:42;15.40;75.00
2407;DHT22;37709;53.480;9.688;2023-02-07T10:52:35;16.00;75.10
2407;DHT22;37709;53.480;9.688;2023-02-07T10:55:06;16.30;73.90
2407;DHT22;37709;53.480;9.688;2023-02-07T10:57:34;16.60;71.20
2407;DHT22;37709;53.480;9.688;2023-02-07T11:02:35;16.50;69.40
2407;DHT22;37709;53.480;9.688;2023-02-07T11:08:20;19.10;68.70
2407;DHT22;37709;53.480;9.688;2023-02-07T11:10:53;19.10;67.60
2407;DHT22;37709;53.480;9.688;2023-02-07T11:13:27;19.40;66.90
2407;DHT22;37709;53.480;9.688;2023-02-07T11:15:58;19.20;63.80
2407;DHT22;37709;53.480;9.688;2023-02-07T11:18:33;20.00;65.30
2407;DHT22;37709;53.480;9.688;2023-02-07T11:21:06;18.70;59.50
2407;DHT22;37709;53.480;9.688;2023-02-07T11:23:35;18.20;62.60
2407;DHT22;37709;53.480;9.688;2023-02-07T11:26:03;18.70;63.50
2407;DHT22;37709;53.480;9.688;2023-02-07T11:28:31;19.40;60.10
2407;DHT22;37709;53.480;9.688;2023-02-07T11:31:07;19.20;61.00
2407;DHT22;37709;53.480;9.688;2023-02-07T11:33:36;20.30;62.80
2407;DHT22;37709;53.480;9.688;2023-02-07T11:38:48;20.20;58.90
2407;DHT22;37709;53.480;9.688;2023-02-07T11:41:20;19.60;56.20
2407;DHT22;37709;53.480;9.688;2023-02-07T11:43:53;20.50;58.90
2407;DHT22;37709;53.480;9.688;2023-02-07T11:46:23;21.20;56.40
2407;DHT22;37709;53.480;9.688;2023-02-07T11:48:57;21.20;56.30
2407;DHT22;37709;53.480;9.688;2023-02-07T11:51:25;20.50;56.60
2407;DHT22;37709;53.480;9.688;2023-02-07T11:53:55;21.50;56.00
2407;DHT22;37709;53.480;9.688;2023-02-07T11:56:34;22.40;56.90
2407;DHT22;37709;53.480;9.688;2023-02-07T11:59:13;22.00;55.30
2407;DHT22;37709;53.480;9.688;2023-02-07T12:01:41;22.30;55.00
2407;DHT22;37709;53.480;9.688;2023-02-07T12:04:20;22.70;53.50
2407;DHT22;37709;53.480;9.688;2023-02-07T12:06:58;22.70;51.50
2407;DHT22;37709;53.480;9.688;2023-02-07T12:09:46;22.00;51.10
2407;DHT22;37709;53.480;9.688;2023-02-07T12:12:21;20.90;51.50
2407;DHT22;37709;53.480;9.688;2023-02-07T12:14:55;20.10;51.00
2407;DHT22;37709;53.480;9.688;2023-02-07T12:17:53;18.80;50.90
2407;DHT22;37709;53.480;9.688;2023-02-07T12:20:28;20.60;52.60
2407;DHT22;37709;53.480;9.688;2023-02-07T12:23:05;19.90;52.10
2407;DHT22;37709;53.480;9.688;2023-02-07T12:25:58;18.30;50.60
2407;DHT22;37709;53.480;9.688;2023-02-07T12:28:33;18.20;54.70
2407;DHT22;37709;53.480;9.688;2023-02-07T12:31:14;19.00;55.00
2407;DHT22;37709;53.480;9.688;2023-02-07T12:33:59;18.90;54.10
2407;DHT22;37709;53.480;9.688;2023-02-07T12:36:41;18.40;52.40
2407;DHT22;37709;53.480;9.688;2023-02-07T12:39:19;18.40;53.70
2407;DHT22;37709;53.480;9.688;2023-02-07T12:42:23;18.20;52.80
2407;DHT22;37709;53.480;9.688;2023-02-07T12:44:51;20.10;54.80
2407;DHT22;37709;53.480;9.688;2023-02-07T12:50:07;19.90;48.60
2407;DHT22;37709;53.480;9.688;2023-02-07T12:53:04;20.60;50.50
2407;DHT22;37709;53.480;9.688;2023-02-07T12:55:55;20.80;48.90
2407;DHT22;37709;53.480;9.688;2023-02-07T13:01:23;20.20;48.10
2407;DHT22;37709;53.480;9.688;2023-02-07T13:07:25;19.50;49.50
2407;DHT22;37709;53.480;9.688;2023-02-07T13:10:10;20.00;48.20
2407;DHT22;37709;53.480;9.688;2023-02-07T13:12:44;20.30;49.20
2407;DHT22;37709;53.480;9.688;2023-02-07T13:15:26;20.60;49.20
2407;DHT22;37709;53.480;9.688;2023-02-07T13:23:40;20.10;48.20
2407;DHT22;37709;53.480;9.688;2023-02-07T13:26:13;19.50;49.00
2407;DHT22;37709;53.480;9.688;2023-02-07T13:29:01;19.90;49.70
2407;DHT22;37709;53.480;9.688;2023-02-07T13:31:34;19.70;49.50
2407;DHT22;37709;53.480;9.688;2023-02-07T13:34:03;19.80;50.20
2407;DHT22;37709;53.480;9.688;2023-02-07T13:36:42;19.60;49.20
2407;DHT22;37709;53.480;9.688;2023-02-07T13:42:32;19.60;50.00
2407;DHT22;37709;53.480;9.688;2023-02-07T13:45:10;18.00;47.10
2407;DHT22;37709;53.480;9.688;2023-02-07T13:47:52;18.10;50.00
2407;DHT22;37709;53.480;9.688;2023-02-07T13:56:14;18.20;49.10
2407;DHT22;37709;53.480;9.688;2023-02-07T13:59:01;18.70;49.60
2407;DHT22;37709;53.480;9.688;2023-02-07T14:01:57;19.00;49.20
2407;DHT22;37709;53.480;9.688;2023-02-07T14:04:45;18.40;49.60
2407;DHT22;37709;53.480;9.688;2023-02-07T14:07:25;16.90;47.80
2407;DHT22;37709;53.480;9.688;2023-02-07T14:09:56;16.40;49.60
2407;DHT22;37709;53.480;9.688;2023-02-07T14:18:27;15.10;51.60
2407;DHT22;37709;53.480;9.688;2023-02-07T14:21:04;15.50;51.10
2407;DHT22;37709;53.480;9.688;2023-02-07T14:32:24;13.40;52.50
2407;DHT22;37709;53.480;9.688;2023-02-07T14:38:10;11.50;55.70
2407;DHT22;37709;53.480;9.688;2023-02-07T14:46:03;11.00;56.50
2407;DHT22;37709;53.480;9.688;2023-02-07T14:51:12;10.30;59.10
2407;DHT22;37709;53.480;9.688;2023-02-07T14:53:41;10.30;61.10
2407;DHT22;37709;53.480;9.688;2023-02-07T14:56:35;10.40;59.60
2407;DHT22;37709;53.480;9.688;2023-02-07T14:59:05;9.10;60.10
2407;DHT22;37709;53.480;9.688;2023-02-07T15:01:34;9.10;63.90
2407;DHT22;37709;53.480;9.688;2023-02-07T15:04:04;8.50;61.70
2407;DHT22;37709;53.480;9.688;2023-02-07T15:06:43;8.10;64.10
2407;DHT22;37709;53.480;9.688;2023-02-07T15:09:26;7.80;65.60
2407;DHT22;37709;53.480;9.688;2023-02-07T15:12:02;7.60;65.00
2407;DHT22;37709;53.480;9.688;2023-02-07T15:14:45;7.40;66.70
2407;DHT22;37709;53.480;9.688;2023-02-07T15:17:19;7.10;67.00
2407;DHT22;37709;53.480;9.688;2023-02-07T15:19:47;6.90;68.50
2407;DHT22;37709;53.480;9.688;2023-02-07T15:22:25;6.80;69.80
2407;DHT22;37709;53.480;9.688;2023-02-07T15:24:57;6.70;71.20
2407;DHT22;37709;53.480;9.688;2023-02-07T15:27:27;6.50;73.20
2407;DHT22;37709;53.480;9.688;2023-02-07T15:30:00;6.30;77.10
2407;DHT22;37709;53.480;9.688;2023-02-07T15:32:29;6.10;80.50
2407;DHT22;37709;53.480;9.688;2023-02-07T15:37:45;5.50;85.40
2407;DHT22;37709;53.480;9.688;2023-02-07T15:40:15;5.30;87.70
2407;DHT22;37709;53.480;9.688;2023-02-07T15:42:56;5.00;89.00
2407;DHT22;37709;53.480;9.688;2023-02-07T15:45:32;4.70;90.40
2407;DHT22;37709;53.480;9.688;2023-02-07T15:48:02;4.50;91.90
2407;DHT22;37709;53.480;9.688;2023-02-07T15:50:30;4.30;92.90
2407;DHT22;37709;53.480;9.688;2023-02-07T15:53:04;4.10;94.80
2407;DHT22;37709;53.480;9.688;2023-02-07T15:55:35;3.90;96.30
2407;DHT22;37709;53.480;9.688;2023-02-07T15:58:04;3.70;98.40
2407;DHT22;37709;53.480;9.688;2023-02-07T16:00:37;3.50;99.90
2407;DHT22;37709;53.480;9.688;2023-02-07T16:03:20;3.30;99.90
2407;DHT22;37709;53.480;9.688;2023-02-07T16:05:56;3.10;99.90
2407;DHT22;37709;53.480;9.688;2023-02-07T16:13:52;2.60;99.90
2407;DHT22;37709;53.480;9.688;2023-02-07T16:16:31;2.50;99.90
2407;DHT22;37709;53.480;9.688;2023-02-07T16:19:22;2.30;99.90
2407;DHT22;37709;53.480;9.688;2023-02-07T16:22:12;2.00;99.90
2407;DHT22;37709;53.480;9.688;2023-02-07T16:24:42;1.80;99.90
2407;DHT22;37709;53.480;9.688;2023-02-07T16:27:19;1.60;99.90
2407;DHT22;37709;53.480;9.688;2023-02-07T16:29:50;1.50;99.90
2407;DHT22;37709;53.480;9.688;2023-02-07T16:32:17;1.30;99.90
2407;DHT22;37709;53.480;9.688;2023-02-07T16:34:46;1.10;99.90
2407;DHT22;37709;53.480;9.688;2023-02-07T16:37:28;1.00;99.90
2407;DHT22;37709;53.480;9.688;2023-02-07T16:39:55;0.80;99.90
2407;DHT22;37709;53.480;9.688;2023-02-07T16:42:23;0.70;99.90
2407;DHT22;37709;53.480;9.688;2023-02-07T16:44:50;0.60;99.90
2407;DHT22;37709;53.480;9.688;2023-02-07T16:47:18;0.50;99.90
2407;DHT22;37709;53.480;9.688;2023-02-07T16:49:45;0.30;99.90
2407;DHT22;37709;53.480;9.688;2023-02-07T16:52:13;0.10;99.90
2407;DHT22;37709;53.480;9.688;2023-02-07T16:54:40;-0.10;99.90
2407;DHT22;37709;53.480;9.688;2023-02-07T16:57:09;-0.30;99.90
2407;DHT22;37709;53.480;9.688;2023-02-07T16:59:37;-0.40;99.90
2407;DHT22;37709;53.480;9.688;2023-02-07T17:02:11;-0.60;99.90
2407;DHT22;37709;53.480;9.688;2023-02-07T17:04:39;-0.70;99.90
2407;DHT22;37709;53.480;9.688;2023-02-07T17:07:09;-0.80;99.90
2407;DHT22;37709;53.480;9.688;2023-02-07T17:09:37;-0.90;99.90
2407;DHT22;37709;53.480;9.688;2023-02-07T17:12:04;-1.00;99.90
2407;DHT22;37709;53.480;9.688;2023-02-07T17:14:37;-0.90;99.90
2407;DHT22;37709;53.480;9.688;2023-02-07T17:17:04;-1.10;99.90
2407;DHT22;37709;53.480;9.688;2023-02-07T17:19:31;-1.10;99.90
2407;DHT22;37709;53.480;9.688;2023-02-07T17:21:59;-1.10;99.90
2407;DHT22;37709;53.480;9.688;2023-02-07T17:24:27;-1.20;99.90
2407;DHT22;37709;53.480;9.688;2023-02-07T17:26:54;-1.30;99.90
2407;DHT22;37709;53.480;9.688;2023-02-07T17:29:23;-1.30;99.90
2407;DHT22;37709;53.480;9.688;2023-02-07T17:31:51;-1.40;99.90
2407;DHT22;37709;53.480;9.688;2023-02-07T17:34:18;-1.50;99.90
2407;DHT22;37709;53.480;9.688;2023-02-07T17:36:48;-1.60;99.90
2407;DHT22;37709;53.480;9.688;2023-02-07T17:39:16;-1.70;99.90
2407;DHT22;37709;53.480;9.688;2023-02-07T17:41:44;-1.80;99.90
2407;DHT22;37709;53.480;9.688;2023-02-07T17:44:11;-1.90;99.90
2407;DHT22;37709;53.480;9.688;2023-02-07T17:46:39;-2.00;99.90
2407;DHT22;37709;53.480;9.688;2023-02-07T17:49:12;-2.00;99.90
2407;DHT22;37709;53.480;9.688;2023-02-07T17:51:40;-2.00;99.90
2407;DHT22;37709;53.480;9.688;2023-02-07T17:54:07;-1.90;99.90
2407;DHT22;37709;53.480;9.688;2023-02-07T17:56:34;-1.80;99.90
2407;DHT22;37709;53.480;9.688;2023-02-07T17:59:04;-1.80;99.90
2407;DHT22;37709;53.480;9.688;2023-02-07T18:01:32;-1.60;99.90
2407;DHT22;37709;53.480;9.688;2023-02-07T18:03:59;-1.60;99.90